sensor_id;sensor_type;location;lat;lon;timestamp;P1;durP1;ratioP1;P2;durP2;ratioP2
9976;SDS011;5029;47.378;11.776;2023-04-03T00:04:50;1.43;;;1.30;;
9976;SDS011;5029;47.378;11.776;2023-04-03T00:09:55;1.80;;;1.70;;
9976;SDS011;5029;47.378;11.776;2023-04-03T00:14:58;1.93;;;1.83;;
9976;SDS011;5029;47.378;11.776;2023-04-03T00:20:01;1.90;;;1.80;;
9976;SDS011;5029;47.378;11.776;2023-04-03T00:25:08;1.80;;;1.70;;
9976;SDS011;5029;47.378;11.776;2023-04-03T00:30:12;1.73;;;1.60;;
9976;SDS011;5029;47.378;11.776;2023-04-03T00:35:17;1.33;;;1.23;;
9976;SDS011;5029;47.378;11.776;2023-04-03T00:40:22;1.80;;;1.70;;
9976;SDS011;5029;47.378;11.776;2023-04-03T00:45:30;2.63;;;1.70;;
9976;SDS011;5029;47.378;11.776;2023-04-03T00:50:37;3.47;;;1.70;;
9976;SDS011;5029;47.378;11.776;2023-04-03T00:55:44;1.70;;;1.60;;
9976;SDS011;5029;47.378;11.776;2023-04-03T01:00:50;1.60;;;1.50;;
9976;SDS011;5029;47.378;11.776;2023-04-03T01:05:58;1.60;;;1.50;;
9976;SDS011;5029;47.378;11.776;2023-04-03T01:11:03;1.63;;;1.47;;
9976;SDS011;5029;47.378;11.776;2023-04-03T01:16:07;1.20;;;1.10;;
9976;SDS011;5029;47.378;11.776;2023-04-03T01:21:15;1.30;;;1.20;;
9976;SDS011;5029;47.378;11.776;2023-04-03T01:26:39;1.50;;;1.40;;
9976;SDS011;5029;47.378;11.776;2023-04-03T01:31:46;1.80;;;1.70;;
9976;SDS011;5029;47.378;11.776;2023-04-03T01:36:54;1.60;;;1.50;;
9976;SDS011;5029;47.378;11.776;2023-04-03T01:41:58;1.80;;;1.70;;
9976;SDS011;5029;47.378;11.776;2023-04-03T01:47:03;2.07;;;1.83;;
9976;SDS011;5029;47.378;11.776;2023-04-03T01:52:08;2.10;;;1.90;;
9976;SDS011;5029;47.378;11.776;2023-04-03T01:57:12;2.30;;;2.10;;
9976;SDS011;5029;47.378;11.776;2023-04-03T02:02:18;1.90;;;1.80;;
9976;SDS011;5029;47.378;11.776;2023-04-03T02:07:21;2.10;;;2.00;;
9976;SDS011;5029;47.378;11.776;2023-04-03T02:12:24;1.90;;;1.80;;
9976;SDS011;5029;47.378;11.776;2023-04-03T02:17:29;1.90;;;1.80;;
9976;SDS011;5029;47.378;11.776;2023-04-03T02:22:33;2.20;;;2.00;;
9976;SDS011;5029;47.378;11.776;2023-04-03T02:27:36;1.97;;;1.80;;
9976;SDS011;5029;47.378;11.776;2023-04-03T02:32:41;2.60;;;2.40;;
9976;SDS011;5029;47.378;11.776;2023-04-03T02:37:45;2.53;;;2.33;;
9976;SDS011;5029;47.378;11.776;2023-04-03T02:42:48;2.23;;;2.03;;
9976;SDS011;5029;47.378;11.776;2023-04-03T02:47:53;3.17;;;2.87;;
9976;SDS011;5029;47.378;11.776;2023-04-03T02:52:56;3.10;;;2.90;;
9976;SDS011;5029;47.378;11.776;2023-04-03T02:58:00;3.20;;;2.90;;
9976;SDS011;5029;47.378;11.776;2023-04-03T03:03:04;5.10;;;2.97;;
9976;SDS011;5029;47.378;11.776;2023-04-03T03:08:08;3.30;;;3.00;;
9976;SDS011;5029;47.378;11.776;2023-04-03T03:13:11;2.70;;;2.50;;
9976;SDS011;5029;47.378;11.776;2023-04-03T03:18:16;3.77;;;3.47;;
9976;SDS011;5029;47.378;11.776;2023-04-03T03:23:20;4.00;;;3.60;;
9976;SDS011;5029;47.378;11.776;2023-04-03T03:28:24;4.17;;;3.87;;
9976;SDS011;5029;47.378;11.776;2023-04-03T03:33:30;3.70;;;3.40;;
9976;SDS011;5029;47.378;11.776;2023-04-03T03:38:33;3.87;;;3.57;;
9976;SDS011;5029;47.378;11.776;2023-04-03T03:43:37;5.23;;;4.83;;
9976;SDS011;5029;47.378;11.776;2023-04-03T03:48:42;4.60;;;4.30;;
9976;SDS011;5029;47.378;11.776;2023-04-03T03:53:46;5.27;;;4.77;;
9976;SDS011;5029;47.378;11.776;2023-04-03T03:58:49;5.23;;;4.83;;
9976;SDS011;5029;47.378;11.776;2023-04-03T04:03:55;5.87;;;5.37;;
9976;SDS011;5029;47.378;11.776;2023-04-03T04:08:58;6.33;;;5.83;;
9976;SDS011;5029;47.378;11.776;2023-04-03T04:14:02;6.53;;;5.93;;
9976;SDS011;5029;47.378;11.776;2023-04-03T04:19:07;5.90;;;5.40;;
9976;SDS011;5029;47.378;11.776;2023-04-03T04:24:11;5.70;;;5.20;;
9976;SDS011;5029;47.378;11.776;2023-04-03T04:29:14;5.93;;;5.43;;
9976;SDS011;5029;47.378;11.776;2023-04-03T04:34:19;6.40;;;4.50;;
9976;SDS011;5029;47.378;11.776;2023-04-03T04:39:22;5.57;;;5.07;;
9976;SDS011;5029;47.378;11.776;2023-04-03T04:44:26;5.57;;;5.07;;
9976;SDS011;5029;47.378;11.776;2023-04-03T04:49:30;5.30;;;4.80;;
9976;SDS011;5029;47.378;11.776;2023-04-03T04:54:34;5.27;;;4.87;;
9976;SDS011;5029;47.378;11.776;2023-04-03T04:59:37;5.60;;;5.10;;
9976;SDS011;5029;47.378;11.776;2023-04-03T05:04:42;5.23;;;4.73;;
9976;SDS011;5029;47.378;11.776;2023-04-03T05:09:46;6.47;;;5.87;;
9976;SDS011;5029;47.378;11.776;2023-04-03T05:14:49;5.47;;;4.97;;
9976;SDS011;5029;47.378;11.776;2023-04-03T05:19:54;6.30;;;5.70;;
9976;SDS011;5029;47.378;11.776;2023-04-03T05:24:57;5.60;;;4.87;;
9976;SDS011;5029;47.378;11.776;2023-04-03T05:30:01;7.03;;;6.43;;
9976;SDS011;5029;47.378;11.776;2023-04-03T05:35:07;5.07;;;4.67;;
9976;SDS011;5029;47.378;11.776;2023-04-03T05:40:11;6.03;;;5.47;;
9976;SDS011;5029;47.378;11.776;2023-04-03T05:45:14;6.50;;;5.90;;
9976;SDS011;5029;47.378;11.776;2023-04-03T05:50:19;6.77;;;6.17;;
9976;SDS011;5029;47.378;11.776;2023-04-03T05:55:22;7.57;;;6.50;;
9976;SDS011;5029;47.378;11.776;2023-04-03T06:00:26;7.53;;;6.83;;
9976;SDS011;5029;47.378;11.776;2023-04-03T06:05:31;7.43;;;6.73;;
9976;SDS011;5029;47.378;11.776;2023-04-03T06:10:35;7.53;;;6.83;;
9976;SDS011;5029;47.378;11.776;2023-04-03T06:15:39;6.83;;;6.23;;
9976;SDS011;5029;47.378;11.776;2023-04-03T06:20:44;5.80;;;5.30;;
9976;SDS011;5029;47.378;11.776;2023-04-03T06:25:48;7.03;;;6.40;;
9976;SDS011;5029;47.378;11.776;2023-04-03T06:30:51;4.70;;;4.10;;
9976;SDS011;5029;47.378;11.776;2023-04-03T06:35:57;6.70;;;6.10;;
9976;SDS011;5029;47.378;11.776;2023-04-03T06:41:00;6.77;;;6.17;;
9976;SDS011;5029;47.378;11.776;2023-04-03T06:46:04;7.10;;;6.50;;
9976;SDS011;5029;47.378;11.776;2023-04-03T06:51:11;6.93;;;6.33;;
9976;SDS011;5029;47.378;11.776;2023-04-03T06:56:20;7.43;;;6.83;;
9976;SDS011;5029;47.378;11.776;2023-04-03T07:01:24;7.33;;;6.73;;
9976;SDS011;5029;47.378;11.776;2023-04-03T07:06:32;7.20;;;6.53;;
9976;SDS011;5029;47.378;11.776;2023-04-03T07:11:36;7.67;;;6.97;;
9976;SDS011;5029;47.378;11.776;2023-04-03T07:16:39;8.50;;;7.17;;
9976;SDS011;5029;47.378;11.776;2023-04-03T07:21:44;7.70;;;7.00;;
9976;SDS011;5029;47.378;11.776;2023-04-03T07:26:48;7.43;;;6.73;;
9976;SDS011;5029;47.378;11.776;2023-04-03T07:31:52;7.67;;;7.00;;
9976;SDS011;5029;47.378;11.776;2023-04-03T07:36:58;7.07;;;6.47;;
9976;SDS011;5029;47.378;11.776;2023-04-03T07:42:02;7.90;;;7.20;;
9976;SDS011;5029;47.378;11.776;2023-04-03T07:47:05;8.03;;;7.27;;
9976;SDS011;5029;47.378;11.776;2023-04-03T07:52:10;7.63;;;6.97;;
9976;SDS011;5029;47.378;11.776;2023-04-03T07:57:16;7.23;;;6.63;;
9976;SDS011;5029;47.378;11.776;2023-04-03T08:02:19;6.77;;;6.17;;
9976;SDS011;5029;47.378;11.776;2023-04-03T08:07:24;7.23;;;6.53;;
9976;SDS011;5029;47.378;11.776;2023-04-03T08:12:28;6.37;;;5.77;;
9976;SDS011;5029;47.378;11.776;2023-04-03T08:17:31;6.20;;;5.70;;
9976;SDS011;5029;47.378;11.776;2023-04-03T08:22:36;6.40;;;5.80;;
9976;SDS011;5029;47.378;11.776;2023-04-03T08:27:39;6.07;;;5.57;;
9976;SDS011;5029;47.378;11.776;2023-04-03T08:32:42;5.47;;;4.97;;
9976;SDS011;5029;47.378;11.776;2023-04-03T08:37:47;6.20;;;5.20;;
9976;SDS011;5029;47.378;11.776;2023-04-03T08:42:53;5.10;;;4.70;;
9976;SDS011;5029;47.378;11.776;2023-04-03T08:48:06;5.43;;;4.83;;
9976;SDS011;5029;47.378;11.776;2023-04-03T08:53:16;4.90;;;4.27;;
9976;SDS011;5029;47.378;11.776;2023-04-03T08:58:23;5.40;;;4.90;;
9976;SDS011;5029;47.378;11.776;2023-04-03T09:03:29;6.10;;;4.70;;
9976;SDS011;5029;47.378;11.776;2023-04-03T09:08:37;4.50;;;4.10;;
9976;SDS011;5029;47.378;11.776;2023-04-03T09:13:47;4.30;;;3.93;;
9976;SDS011;5029;47.378;11.776;2023-04-03T09:18:57;3.90;;;3.53;;
9976;SDS011;5029;47.378;11.776;2023-04-03T09:24:11;4.10;;;3.63;;
9976;SDS011;5029;47.378;11.776;2023-04-03T09:29:18;4.30;;;3.90;;
9976;SDS011;5029;47.378;11.776;2023-04-03T09:34:24;3.93;;;3.63;;
9976;SDS011;5029;47.378;11.776;2023-04-03T09:39:43;3.90;;;3.50;;
9976;SDS011;5029;47.378;11.776;2023-04-03T09:44:53;4.13;;;3.50;;
9976;SDS011;5029;47.378;11.776;2023-04-03T09:50:10;4.37;;;3.80;;
9976;SDS011;5029;47.378;11.776;2023-04-03T09:55:23;3.77;;;3.40;;
9976;SDS011;5029;47.378;11.776;2023-04-03T10:00:31;3.30;;;3.00;;
9976;SDS011;5029;47.378;11.776;2023-04-03T10:05:38;3.37;;;3.07;;
9976;SDS011;5029;47.378;11.776;2023-04-03T10:10:44;2.60;;;2.40;;
9976;SDS011;5029;47.378;11.776;2023-04-03T10:15:50;2.90;;;2.70;;
9976;SDS011;5029;47.378;11.776;2023-04-03T10:20:57;2.47;;;2.27;;
9976;SDS011;5029;47.378;11.776;2023-04-03T10:26:15;3.67;;;2.40;;
9976;SDS011;5029;47.378;11.776;2023-04-03T10:31:25;2.60;;;2.40;;
9976;SDS011;5029;47.378;11.776;2023-04-03T10:36:37;2.43;;;2.17;;
9976;SDS011;5029;47.378;11.776;2023-04-03T10:41:56;2.63;;;2.43;;
9976;SDS011;5029;47.378;11.776;2023-04-03T10:47:17;3.37;;;2.20;;
9976;SDS011;5029;47.378;11.776;2023-04-03T10:52:25;2.43;;;2.23;;
9976;SDS011;5029;47.378;11.776;2023-04-03T10:57:43;2.87;;;2.20;;
9976;SDS011;5029;47.378;11.776;2023-04-03T11:02:48;2.87;;;2.57;;
9976;SDS011;5029;47.378;11.776;2023-04-03T11:07:54;3.53;;;2.30;;
9976;SDS011;5029;47.378;11.776;2023-04-03T11:13:01;2.63;;;2.43;;
9976;SDS011;5029;47.378;11.776;2023-04-03T11:18:12;2.67;;;2.47;;
9976;SDS011;5029;47.378;11.776;2023-04-03T11:23:19;2.60;;;2.40;;
9976;SDS011;5029;47.378;11.776;2023-04-03T11:28:44;2.40;;;2.20;;
9976;SDS011;5029;47.378;11.776;2023-04-03T11:33:50;2.67;;;2.47;;
9976;SDS011;5029;47.378;11.776;2023-04-03T11:38:59;2.43;;;2.03;;
9976;SDS011;5029;47.378;11.776;2023-04-03T11:44:32;2.10;;;1.90;;
9976;SDS011;5029;47.378;11.776;2023-04-03T11:49:53;2.10;;;1.90;;
9976;SDS011;5029;47.378;11.776;2023-04-03T11:54:59;1.70;;;1.60;;
9976;SDS011;5029;47.378;11.776;2023-04-03T12:05:41;1.90;;;1.80;;
9976;SDS011;5029;47.378;11.776;2023-04-03T12:10:50;2.87;;;2.57;;
9976;SDS011;5029;47.378;11.776;2023-04-03T12:16:19;3.07;;;2.20;;
9976;SDS011;5029;47.378;11.776;2023-04-03T12:21:25;2.27;;;2.07;;
9976;SDS011;5029;47.378;11.776;2023-04-03T12:27:14;2.20;;;2.00;;
9976;SDS011;5029;47.378;11.776;2023-04-03T12:32:46;2.00;;;1.67;;
9976;SDS011;5029;47.378;11.776;2023-04-03T12:38:17;2.03;;;1.73;;
9976;SDS011;5029;47.378;11.776;2023-04-03T12:43:47;2.20;;;1.70;;
9976;SDS011;5029;47.378;11.776;2023-04-03T12:49:01;2.17;;;1.80;;
9976;SDS011;5029;47.378;11.776;2023-04-03T12:54:17;2.03;;;1.60;;
9976;SDS011;5029;47.378;11.776;2023-04-03T12:59:24;2.23;;;2.00;;
9976;SDS011;5029;47.378;11.776;2023-04-03T13:04:30;2.20;;;1.80;;
9976;SDS011;5029;47.378;11.776;2023-04-03T13:09:35;1.50;;;1.40;;
9976;SDS011;5029;47.378;11.776;2023-04-03T13:14:39;1.77;;;1.67;;
9976;SDS011;5029;47.378;11.776;2023-04-03T13:19:44;1.50;;;1.40;;
9976;SDS011;5029;47.378;11.776;2023-04-03T13:24:50;2.00;;;1.80;;
9976;SDS011;5029;47.378;11.776;2023-04-03T13:29:54;1.50;;;1.40;;
9976;SDS011;5029;47.378;11.776;2023-04-03T13:35:01;1.60;;;1.50;;
9976;SDS011;5029;47.378;11.776;2023-04-03T13:40:20;1.50;;;1.40;;
9976;SDS011;5029;47.378;11.776;2023-04-03T13:45:42;1.80;;;1.70;;
9976;SDS011;5029;47.378;11.776;2023-04-03T13:50:58;1.30;;;1.20;;
9976;SDS011;5029;47.378;11.776;2023-04-03T13:56:09;1.90;;;1.70;;
9976;SDS011;5029;47.378;11.776;2023-04-03T14:01:19;1.70;;;1.60;;
9976;SDS011;5029;47.378;11.776;2023-04-03T14:06:24;1.60;;;1.50;;
9976;SDS011;5029;47.378;11.776;2023-04-03T14:11:29;1.80;;;1.70;;
9976;SDS011;5029;47.378;11.776;2023-04-03T14:16:37;1.37;;;1.20;;
9976;SDS011;5029;47.378;11.776;2023-04-03T14:21:42;2.13;;;1.40;;
9976;SDS011;5029;47.378;11.776;2023-04-03T14:26:48;1.90;;;1.70;;
9976;SDS011;5029;47.378;11.776;2023-04-03T14:31:52;1.60;;;1.50;;
9976;SDS011;5029;47.378;11.776;2023-04-03T14:37:15;2.87;;;1.57;;
9976;SDS011;5029;47.378;11.776;2023-04-03T14:42:21;1.80;;;1.70;;
9976;SDS011;5029;47.378;11.776;2023-04-03T14:47:27;1.80;;;1.70;;
9976;SDS011;5029;47.378;11.776;2023-04-03T14:52:33;2.10;;;1.90;;
9976;SDS011;5029;47.378;11.776;2023-04-03T14:57:40;2.13;;;1.93;;
9976;SDS011;5029;47.378;11.776;2023-04-03T15:02:43;2.40;;;2.20;;
9976;SDS011;5029;47.378;11.776;2023-04-03T15:07:50;4.07;;;2.00;;
9976;SDS011;5029;47.378;11.776;2023-04-03T15:12:57;2.23;;;2.03;;
9976;SDS011;5029;47.378;11.776;2023-04-03T15:18:01;2.47;;;1.77;;
9976;SDS011;5029;47.378;11.776;2023-04-03T15:23:06;1.97;;;1.67;;
9976;SDS011;5029;47.378;11.776;2023-04-03T15:28:11;3.37;;;1.90;;
9976;SDS011;5029;47.378;11.776;2023-04-03T15:33:21;2.33;;;2.13;;
9976;SDS011;5029;47.378;11.776;2023-04-03T15:38:24;2.50;;;2.23;;
9976;SDS011;5029;47.378;11.776;2023-04-03T15:43:29;2.77;;;2.20;;
9976;SDS011;5029;47.378;11.776;2023-04-03T15:48:35;2.70;;;2.40;;
9976;SDS011;5029;47.378;11.776;2023-04-03T15:53:39;2.20;;;2.00;;
9976;SDS011;5029;47.378;11.776;2023-04-03T15:58:43;2.67;;;2.10;;
9976;SDS011;5029;47.378;11.776;2023-04-03T16:03:47;2.50;;;2.30;;
9976;SDS011;5029;47.378;11.776;2023-04-03T16:08:50;2.50;;;2.20;;
9976;SDS011;5029;47.378;11.776;2023-04-03T16:13:59;2.20;;;2.00;;
9976;SDS011;5029;47.378;11.776;2023-04-03T16:19:03;3.23;;;2.93;;
9976;SDS011;5029;47.378;11.776;2023-04-03T16:24:06;2.53;;;1.90;;
9976;SDS011;5029;47.378;11.776;2023-04-03T16:29:12;2.17;;;1.97;;
9976;SDS011;5029;47.378;11.776;2023-04-03T16:34:15;2.53;;;2.20;;
9976;SDS011;5029;47.378;11.776;2023-04-03T16:39:19;2.30;;;2.10;;
9976;SDS011;5029;47.378;11.776;2023-04-03T16:44:24;5.53;;;4.67;;
9976;SDS011;5029;47.378;11.776;2023-04-03T16:49:27;2.30;;;2.10;;
9976;SDS011;5029;47.378;11.776;2023-04-03T16:54:35;2.93;;;2.53;;
9976;SDS011;5029;47.378;11.776;2023-04-03T16:59:41;13.23;;;11.83;;
9976;SDS011;5029;47.378;11.776;2023-04-03T17:04:44;2.67;;;2.47;;
9976;SDS011;5029;47.378;11.776;2023-04-03T17:09:51;4.13;;;2.20;;
9976;SDS011;5029;47.378;11.776;2023-04-03T17:14:57;2.43;;;2.10;;
9976;SDS011;5029;47.378;11.776;2023-04-03T17:20:01;3.03;;;2.30;;
9976;SDS011;5029;47.378;11.776;2023-04-03T17:25:06;2.53;;;2.27;;
9976;SDS011;5029;47.378;11.776;2023-04-03T17:30:13;2.80;;;2.10;;
9976;SDS011;5029;47.378;11.776;2023-04-03T17:35:18;2.43;;;2.03;;
9976;SDS011;5029;47.378;11.776;2023-04-03T17:40:21;2.50;;;2.30;;
9976;SDS011;5029;47.378;11.776;2023-04-03T17:45:27;2.50;;;1.90;;
9976;SDS011;5029;47.378;11.776;2023-04-03T17:50:30;2.73;;;2.20;;
9976;SDS011;5029;47.378;11.776;2023-04-03T17:55:36;3.93;;;2.60;;
9976;SDS011;5029;47.378;11.776;2023-04-03T18:00:43;3.40;;;2.60;;
9976;SDS011;5029;47.378;11.776;2023-04-03T18:05:47;3.00;;;2.70;;
9976;SDS011;5029;47.378;11.776;2023-04-03T18:10:55;3.13;;;2.20;;
9976;SDS011;5029;47.378;11.776;2023-04-03T18:16:01;2.60;;;2.03;;
9976;SDS011;5029;47.378;11.776;2023-04-03T18:21:07;2.70;;;2.00;;
9976;SDS011;5029;47.378;11.776;2023-04-03T18:26:14;2.23;;;2.00;;
9976;SDS011;5029;47.378;11.776;2023-04-03T18:31:23;2.27;;;1.90;;
9976;SDS011;5029;47.378;11.776;2023-04-03T18:36:32;2.00;;;1.80;;
9976;SDS011;5029;47.378;11.776;2023-04-03T18:41:40;2.90;;;1.80;;
9976;SDS011;5029;47.378;11.776;2023-04-03T18:46:52;3.03;;;1.70;;
9976;SDS011;5029;47.378;11.776;2023-04-03T18:52:01;1.77;;;1.67;;
9976;SDS011;5029;47.378;11.776;2023-04-03T18:57:07;2.20;;;1.40;;
9976;SDS011;5029;47.378;11.776;2023-04-03T19:02:13;1.80;;;1.50;;
9976;SDS011;5029;47.378;11.776;2023-04-03T19:07:19;2.40;;;1.47;;
9976;SDS011;5029;47.378;11.776;2023-04-03T19:12:23;2.23;;;1.80;;
9976;SDS011;5029;47.378;11.776;2023-04-03T19:17:30;5.60;;;2.30;;
9976;SDS011;5029;47.378;11.776;2023-04-03T19:22:35;2.10;;;1.90;;
9976;SDS011;5029;47.378;11.776;2023-04-03T19:27:40;2.43;;;1.80;;
9976;SDS011;5029;47.378;11.776;2023-04-03T19:32:47;1.70;;;1.50;;
9976;SDS011;5029;47.378;11.776;2023-04-03T19:37:53;4.03;;;2.17;;
9976;SDS011;5029;47.378;11.776;2023-04-03T19:42:57;1.90;;;1.73;;
9976;SDS011;5029;47.378;11.776;2023-04-03T19:48:04;2.63;;;2.10;;
9976;SDS011;5029;47.378;11.776;2023-04-03T19:53:09;2.77;;;2.00;;
9976;SDS011;5029;47.378;11.776;2023-04-03T19:58:20;2.87;;;2.30;;
9976;SDS011;5029;47.378;11.776;2023-04-03T20:03:29;4.00;;;2.50;;
9976;SDS011;5029;47.378;11.776;2023-04-03T20:08:36;2.50;;;2.23;;
9976;SDS011;5029;47.378;11.776;2023-04-03T20:13:40;3.07;;;2.10;;
9976;SDS011;5029;47.378;11.776;2023-04-03T20:18:45;3.90;;;2.47;;
9976;SDS011;5029;47.378;11.776;2023-04-03T20:23:52;3.03;;;2.20;;
9976;SDS011;5029;47.378;11.776;2023-04-03T20:28:58;2.40;;;2.10;;
9976;SDS011;5029;47.378;11.776;2023-04-03T20:34:05;3.40;;;2.43;;
9976;SDS011;5029;47.378;11.776;2023-04-03T20:39:08;3.43;;;2.10;;
9976;SDS011;5029;47.378;11.776;2023-04-03T20:44:12;2.30;;;2.10;;
9976;SDS011;5029;47.378;11.776;2023-04-03T20:49:17;1.93;;;1.70;;
9976;SDS011;5029;47.378;11.776;2023-04-03T20:54:21;3.00;;;2.00;;
9976;SDS011;5029;47.378;11.776;2023-04-03T20:59:25;3.17;;;2.00;;
9976;SDS011;5029;47.378;11.776;2023-04-03T21:04:33;3.60;;;2.13;;
9976;SDS011;5029;47.378;11.776;2023-04-03T21:20:49;2.33;;;1.97;;
9976;SDS011;5029;47.378;11.776;2023-04-03T21:25:53;2.30;;;2.00;;
9976;SDS011;5029;47.378;11.776;2023-04-03T21:30:56;2.90;;;2.27;;
9976;SDS011;5029;47.378;11.776;2023-04-03T21:36:01;2.77;;;2.30;;
9976;SDS011;5029;47.378;11.776;2023-04-03T21:41:04;2.80;;;2.30;;
9976;SDS011;5029;47.378;11.776;2023-04-03T21:46:08;2.40;;;2.20;;
9976;SDS011;5029;47.378;11.776;2023-04-03T21:51:13;3.10;;;2.10;;
9976;SDS011;5029;47.378;11.776;2023-04-03T21:56:17;2.27;;;1.80;;
9976;SDS011;5029;47.378;11.776;2023-04-03T22:01:22;3.27;;;2.10;;
9976;SDS011;5029;47.378;11.776;2023-04-03T22:06:27;3.03;;;2.27;;
9976;SDS011;5029;47.378;11.776;2023-04-03T22:11:31;2.63;;;2.20;;
9976;SDS011;5029;47.378;11.776;2023-04-03T22:16:34;2.20;;;2.00;;
9976;SDS011;5029;47.378;11.776;2023-04-03T22:21:40;3.37;;;2.00;;
9976;SDS011;5029;47.378;11.776;2023-04-03T22:26:44;2.53;;;1.70;;
9976;SDS011;5029;47.378;11.776;2023-04-03T22:31:47;5.57;;;1.97;;
9976;SDS011;5029;47.378;11.776;2023-04-03T22:37:26;2.43;;;2.10;;
9976;SDS011;5029;47.378;11.776;2023-04-03T22:42:29;2.97;;;2.10;;
9976;SDS011;5029;47.378;11.776;2023-04-03T22:47:33;2.37;;;2.10;;
9976;SDS011;5029;47.378;11.776;2023-04-03T22:52:38;2.57;;;1.83;;
9976;SDS011;5029;47.378;11.776;2023-04-03T22:57:44;2.20;;;2.00;;
9976;SDS011;5029;47.378;11.776;2023-04-03T23:02:48;2.77;;;2.10;;
9976;SDS011;5029;47.378;11.776;2023-04-03T23:07:53;2.50;;;2.20;;
9976;SDS011;5029;47.378;11.776;2023-04-03T23:12:56;2.77;;;2.10;;
9976;SDS011;5029;47.378;11.776;2023-04-03T23:18:00;3.07;;;2.10;;
9976;SDS011;5029;47.378;11.776;2023-04-03T23:23:05;2.37;;;2.10;;
9976;SDS011;5029;47.378;11.776;2023-04-03T23:28:08;2.80;;;2.17;;
9976;SDS011;5029;47.378;11.776;2023-04-03T23:33:12;2.37;;;2.10;;
9976;SDS011;5029;47.378;11.776;2023-04-03T23:38:17;2.43;;;2.23;;
9976;SDS011;5029;47.378;11.776;2023-04-03T23:43:20;2.67;;;2.23;;
9976;SDS011;5029;47.378;11.776;2023-04-03T23:48:24;2.40;;;2.00;;
9976;SDS011;5029;47.378;11.776;2023-04-03T23:53:29;3.53;;;2.20;;
9976;SDS011;5029;47.378;11.776;2023-04-03T23:58:32;2.93;;;1.93;;
